Time;durP1;ratioP1;P1;durP2;ratioP2;P2;SDS_P1;SDS_P2;PMS_P1;PMS_P2;Temp;Humidity;BMP_temperature;BMP_pressure;BME280_temperature;BME280_humidity;BME280_pressure;Samples;Min_cycle;Max_cycle;Signal;HPM_P1;HPM_P2
2021/12/12 00:00:44;;;;;;;;;;;3.90;94.00;;;;;;5091464;28;19962;-69
2021/12/12 00:03:19;;;;;;;;;;;4.00;94.30;;;;;;5088860;28;20379;-70
2021/12/12 00:05:47;;;;;;;;;;;4.00;94.00;;;;;;5091532;28;20438;-70
2021/12/12 00:08:14;;;;;;;;;;;4.00;94.00;;;;;;5091474;28;20000;-70
2021/12/12 00:10:41;;;;;;;;;;;4.00;94.00;;;;;;5091177;28;19919;-70
2021/12/12 00:13:10;;;;;;;;;;;4.00;94.00;;;;;;5090246;28;19915;-69
2021/12/12 00:15:35;;;;;;;;;;;3.90;94.00;;;;;;5091661;28;19916;-70
2021/12/12 00:18:01;;;;;;;;;;;4.00;94.00;;;;;;5088984;28;19912;-70
2021/12/12 00:20:27;;;;;;;;;;;3.90;94.00;;;;;;5091549;28;19939;-69
2021/12/12 00:22:58;;;;;;;;;;;4.00;94.00;;;;;;5093904;28;21169;-70
2021/12/12 00:25:24;;;;;;;;;;;4.00;94.00;;;;;;5105481;28;20435;-70
2021/12/12 00:27:49;;;;;;;;;;;4.00;94.00;;;;;;5091780;28;20043;-70
2021/12/12 00:30:15;;;;;;;;;;;4.00;94.00;;;;;;5098610;28;19915;-70
2021/12/12 00:32:40;;;;;;;;;;;4.00;94.10;;;;;;5090968;28;20002;-70
2021/12/12 00:35:10;;;;;;;;;;;4.00;94.00;;;;;;5091603;28;19916;-70
2021/12/12 00:37:36;;;;;;;;;;;3.90;94.00;;;;;;5089363;28;19939;-70
2021/12/12 00:40:08;;;;;;;;;;;4.00;94.00;;;;;;5088781;28;20358;-70
2021/12/12 00:42:37;;;;;;;;;;;4.00;94.00;;;;;;5093566;28;19943;-70
2021/12/12 00:45:06;;;;;;;;;;;3.90;94.00;;;;;;5099814;28;20648;-70
2021/12/12 00:47:32;;;;;;;;;;;4.00;94.00;;;;;;5091722;28;20632;-70
2021/12/12 00:49:58;;;;;;;;;;;4.00;94.00;;;;;;5093622;28;19919;-70
2021/12/12 00:52:23;;;;;;;;;;;4.00;94.00;;;;;;5093907;28;19912;-70
2021/12/12 00:54:50;;;;;;;;;;;4.00;94.00;;;;;;5098898;28;19911;-70
2021/12/12 00:57:17;;;;;;;;;;;4.00;94.10;;;;;;5093872;28;19920;-69
2021/12/12 00:59:44;;;;;;;;;;;4.00;94.10;;;;;;5092256;28;19952;-70
2021/12/12 01:02:23;;;;;;;;;;;4.00;94.10;;;;;;5090796;28;19918;-69
2021/12/12 01:04:50;;;;;;;;;;;4.00;94.00;;;;;;5091167;28;20502;-69
2021/12/12 01:07:20;;;;;;;;;;;4.00;94.10;;;;;;5089462;28;20360;-69
2021/12/12 01:09:47;;;;;;;;;;;4.00;94.00;;;;;;5089965;28;19920;-70
2021/12/12 01:12:15;;;;;;;;;;;4.00;94.00;;;;;;5088469;28;19912;-70
2021/12/12 01:14:43;;;;;;;;;;;3.90;94.00;;;;;;5100596;28;19915;-70
2021/12/12 01:17:12;;;;;;;;;;;3.90;94.00;;;;;;5092569;28;19912;-70
2021/12/12 01:19:40;;;;;;;;;;;3.90;94.10;;;;;;5097827;28;20517;-69
2021/12/12 01:22:07;;;;;;;;;;;3.90;94.00;;;;;;5093446;28;19951;-69
2021/12/12 01:24:35;;;;;;;;;;;3.90;94.10;;;;;;5090690;28;19941;-69
2021/12/12 01:27:01;;;;;;;;;;;3.90;94.00;;;;;;5092157;28;20543;-69
2021/12/12 01:29:27;;;;;;;;;;;4.00;94.00;;;;;;5099266;28;19907;-70
2021/12/12 01:31:53;;;;;;;;;;;4.00;94.10;;;;;;5088177;28;20021;-70
2021/12/12 01:34:24;;;;;;;;;;;4.00;94.00;;;;;;5100533;28;19951;-69
2021/12/12 01:39:23;;;;;;;;;;;4.00;94.00;;;;;;5101614;28;19957;-69
2021/12/12 01:41:58;;;;;;;;;;;4.00;94.00;;;;;;5086435;28;19915;-70
2021/12/12 01:44:30;;;;;;;;;;;3.90;94.00;;;;;;5100195;28;19916;-69
2021/12/12 01:47:02;;;;;;;;;;;3.90;94.00;;;;;;5093626;28;19916;-69
2021/12/12 01:49:29;;;;;;;;;;;4.00;94.00;;;;;;5090476;28;19915;-69
2021/12/12 01:51:57;;;;;;;;;;;4.00;94.00;;;;;;5090592;28;20339;-69
2021/12/12 01:54:26;;;;;;;;;;;4.00;94.10;;;;;;5078431;28;19916;-70
2021/12/12 01:56:54;;;;;;;;;;;4.00;94.00;;;;;;5083518;28;19912;-70
2021/12/12 01:59:22;;;;;;;;;;;4.00;94.10;;;;;;5092348;28;19908;-69
2021/12/12 02:01:50;;;;;;;;;;;4.00;94.00;;;;;;5091985;28;19942;-69
2021/12/12 02:04:18;;;;;;;;;;;4.00;94.00;;;;;;5104088;28;19949;-69
2021/12/12 02:06:45;;;;;;;;;;;4.00;94.10;;;;;;5093828;28;20266;-69
2021/12/12 02:09:11;;;;;;;;;;;4.00;94.00;;;;;;5094256;28;19908;-70
2021/12/12 02:11:37;;;;;;;;;;;4.00;94.10;;;;;;5094646;28;20494;-69
2021/12/12 02:14:08;;;;;;;;;;;4.00;94.00;;;;;;5092122;28;19916;-70
2021/12/12 02:16:34;;;;;;;;;;;4.00;94.10;;;;;;5091990;28;19911;-70
2021/12/12 02:19:00;;;;;;;;;;;4.00;94.10;;;;;;5093310;28;19966;-69
2021/12/12 02:21:32;;;;;;;;;;;4.00;94.00;;;;;;5096838;28;19959;-69
2021/12/12 02:35:14;;;;;;;;;;;;;;;;;;;;;
2021/12/12 02:37:33;;;;;;;;;;;4.00;94.00;;;;;;5097119;28;19914;-70
2021/12/12 02:39:59;;;;;;;;;;;4.00;94.00;;;;;;5099435;28;19912;-70
2021/12/12 02:42:25;;;;;;;;;;;4.10;94.00;;;;;;5095312;28;19919;-70
2021/12/12 02:44:55;;;;;;;;;;;4.00;94.00;;;;;;5098820;28;19943;-70
2021/12/12 02:47:27;;;;;;;;;;;4.00;94.00;;;;;;5091746;28;20411;-70
2021/12/12 02:50:07;;;;;;;;;;;4.00;94.00;;;;;;5101877;28;19916;-70
2021/12/12 02:52:33;;;;;;;;;;;4.00;94.00;;;;;;5092624;28;20049;-70
2021/12/12 02:55:00;;;;;;;;;;;4.00;94.00;;;;;;5098451;28;20007;-69
2021/12/12 02:57:27;;;;;;;;;;;4.00;94.10;;;;;;5092699;28;19923;-69
2021/12/12 02:59:53;;;;;;;;;;;4.10;94.00;;;;;;5089247;28;19935;-69
2021/12/12 03:02:23;;;;;;;;;;;4.10;94.00;;;;;;5093846;28;19919;-69
2021/12/12 03:04:49;;;;;;;;;;;4.00;94.00;;;;;;5085060;28;20474;-70
2021/12/12 03:07:15;;;;;;;;;;;4.10;94.30;;;;;;5092280;28;19991;-70
2021/12/12 03:09:43;;;;;;;;;;;4.00;94.00;;;;;;5092640;28;19916;-69
2021/12/12 03:12:11;;;;;;;;;;;4.10;94.00;;;;;;5091327;28;19923;-69
2021/12/12 03:14:37;;;;;;;;;;;4.10;94.00;;;;;;5086118;28;19916;-70
2021/12/12 03:17:06;;;;;;;;;;;4.10;94.00;;;;;;5093225;28;19908;-69
2021/12/12 03:19:31;;;;;;;;;;;4.10;94.00;;;;;;5081669;28;19916;-69
2021/12/12 03:21:57;;;;;;;;;;;4.10;94.00;;;;;;5091947;28;19908;-69
2021/12/12 03:24:25;;;;;;;;;;;4.10;94.00;;;;;;5081221;28;19908;-70
2021/12/12 03:26:52;;;;;;;;;;;4.10;94.00;;;;;;5086955;28;19912;-70
2021/12/12 03:29:18;;;;;;;;;;;4.10;94.00;;;;;;5090856;28;19920;-70
2021/12/12 03:31:45;;;;;;;;;;;4.10;94.00;;;;;;5087544;28;19912;-70
2021/12/12 03:34:13;;;;;;;;;;;4.10;94.00;;;;;;5088143;28;19912;-70
2021/12/12 03:36:39;;;;;;;;;;;4.10;94.00;;;;;;5091165;28;20596;-70
2021/12/12 03:39:07;;;;;;;;;;;4.10;94.00;;;;;;5091321;28;19913;-69
2021/12/12 03:41:34;;;;;;;;;;;4.10;94.00;;;;;;5090073;28;19912;-70
2021/12/12 03:44:01;;;;;;;;;;;4.10;94.00;;;;;;5088811;28;20234;-70
2021/12/12 03:46:27;;;;;;;;;;;4.10;94.00;;;;;;5089623;28;19924;-70
2021/12/12 03:48:53;;;;;;;;;;;4.10;94.00;;;;;;5091453;28;19999;-70
2021/12/12 03:51:23;;;;;;;;;;;4.10;94.00;;;;;;5088531;28;20422;-70
2021/12/12 03:53:49;;;;;;;;;;;4.10;94.00;;;;;;5101112;27;19962;-70
2021/12/12 03:56:15;;;;;;;;;;;4.10;94.00;;;;;;5089312;28;19908;-70
2021/12/12 03:58:41;;;;;;;;;;;4.20;94.00;;;;;;5094732;28;19919;-70
2021/12/12 04:01:06;;;;;;;;;;;4.20;94.00;;;;;;5089762;28;19947;-70
2021/12/12 04:03:32;;;;;;;;;;;4.20;94.00;;;;;;5092290;28;19973;-70
2021/12/12 04:06:00;;;;;;;;;;;4.10;94.00;;;;;;5087203;28;20392;-70
2021/12/12 04:08:26;;;;;;;;;;;4.10;94.00;;;;;;5094405;28;19912;-70
2021/12/12 04:10:52;;;;;;;;;;;4.20;94.10;;;;;;5091164;28;19920;-69
2021/12/12 04:13:18;;;;;;;;;;;4.20;94.00;;;;;;5095740;28;20018;-69
2021/12/12 04:15:47;;;;;;;;;;;4.20;94.00;;;;;;5100698;28;19919;-69
2021/12/12 04:18:13;;;;;;;;;;;4.20;94.00;;;;;;5091932;28;20482;-69
2021/12/12 04:20:39;;;;;;;;;;;4.20;94.00;;;;;;5096579;28;19987;-70
2021/12/12 04:23:13;;;;;;;;;;;4.20;94.10;;;;;;5092300;28;19916;-70
2021/12/12 04:25:39;;;;;;;;;;;4.20;94.00;;;;;;5089033;28;20368;-70
2021/12/12 04:28:04;;;;;;;;;;;4.20;94.00;;;;;;5094399;28;19957;-70
2021/12/12 04:30:30;;;;;;;;;;;4.20;94.10;;;;;;5084522;28;19920;-70
2021/12/12 04:32:55;;;;;;;;;;;4.20;94.10;;;;;;5094430;28;19924;-70
2021/12/12 04:35:25;;;;;;;;;;;4.20;94.00;;;;;;5092531;28;19912;-69
2021/12/12 04:37:51;;;;;;;;;;;4.20;94.00;;;;;;5091253;28;19919;-70
2021/12/12 04:40:18;;;;;;;;;;;4.20;94.30;;;;;;5091641;28;19920;-69
2021/12/12 04:42:44;;;;;;;;;;;4.20;94.00;;;;;;5090935;28;20361;-69
2021/12/12 04:45:10;;;;;;;;;;;4.20;94.00;;;;;;5096206;28;19969;-70
2021/12/12 04:50:29;;;;;;;;;;;4.20;94.10;;;;;;5093567;28;19996;-70
2021/12/12 04:52:58;;;;;;;;;;;4.30;94.10;;;;;;5080425;28;19919;-70
2021/12/12 04:55:24;;;;;;;;;;;4.20;94.00;;;;;;5090269;28;20277;-70
2021/12/12 04:58:03;;;;;;;;;;;4.20;94.00;;;;;;5083665;28;19919;-69
2021/12/12 05:00:31;;;;;;;;;;;4.30;94.00;;;;;;5092142;28;19920;-70
2021/12/12 05:03:18;;;;;;;;;;;4.30;94.10;;;;;;5090151;28;20406;-70
2021/12/12 05:05:56;;;;;;;;;;;4.20;94.30;;;;;;5092289;28;19913;-69
2021/12/12 05:08:41;;;;;;;;;;;4.30;94.10;;;;;;5089420;28;19908;-70
2021/12/12 05:11:19;;;;;;;;;;;4.30;94.10;;;;;;5089602;28;19912;-69
2021/12/12 05:13:55;;;;;;;;;;;4.30;94.10;;;;;;5082976;28;19947;-70
2021/12/12 05:16:26;;;;;;;;;;;4.30;94.10;;;;;;5092667;28;20372;-70
2021/12/12 05:18:55;;;;;;;;;;;4.30;94.20;;;;;;5087866;28;19908;-70
2021/12/12 05:21:25;;;;;;;;;;;4.30;94.20;;;;;;5091338;28;19920;-69
2021/12/12 05:23:52;;;;;;;;;;;4.30;94.10;;;;;;5089030;28;19954;-70
2021/12/12 05:26:18;;;;;;;;;;;4.30;94.10;;;;;;5088329;28;19931;-69
2021/12/12 05:28:49;;;;;;;;;;;4.30;94.20;;;;;;5092334;28;20280;-69
2021/12/12 05:31:16;;;;;;;;;;;4.30;94.20;;;;;;5089884;28;19919;-70
2021/12/12 05:33:42;;;;;;;;;;;4.30;94.10;;;;;;5090041;28;19962;-69
2021/12/12 05:36:09;;;;;;;;;;;4.30;94.10;;;;;;5093956;27;19916;-70
2021/12/12 05:38:34;;;;;;;;;;;4.30;94.10;;;;;;5093940;28;19912;-69
2021/12/12 05:41:00;;;;;;;;;;;4.30;94.20;;;;;;5093035;28;19919;-69
2021/12/12 05:43:26;;;;;;;;;;;4.40;94.20;;;;;;5093485;28;19949;-69
2021/12/12 05:45:52;;;;;;;;;;;4.30;94.20;;;;;;5093616;28;19943;-70
2021/12/12 05:48:19;;;;;;;;;;;4.30;94.20;;;;;;5096623;28;19918;-70
2021/12/12 05:50:45;;;;;;;;;;;4.30;94.20;;;;;;5092978;28;19915;-70
2021/12/12 05:53:12;;;;;;;;;;;4.30;94.20;;;;;;5089599;28;19916;-70
2021/12/12 05:55:37;;;;;;;;;;;4.30;94.40;;;;;;5089840;28;19907;-69
2021/12/12 05:58:04;;;;;;;;;;;4.30;94.20;;;;;;5086199;28;19912;-70
2021/12/12 06:00:38;;;;;;;;;;;4.30;94.30;;;;;;5093896;28;19912;-70
2021/12/12 06:03:11;;;;;;;;;;;4.40;94.30;;;;;;5092638;28;19955;-69
2021/12/12 06:05:36;;;;;;;;;;;4.40;94.40;;;;;;5090559;28;20731;-69
2021/12/12 06:08:02;;;;;;;;;;;4.30;94.30;;;;;;5100441;28;20011;-70
2021/12/12 06:10:28;;;;;;;;;;;4.40;94.30;;;;;;5095509;27;20007;-69
2021/12/12 06:12:54;;;;;;;;;;;4.40;94.30;;;;;;5092233;28;19965;-70
2021/12/12 06:15:22;;;;;;;;;;;4.40;94.40;;;;;;5095789;28;19923;-69
2021/12/12 06:17:48;;;;;;;;;;;4.40;94.50;;;;;;5088814;28;19989;-70
2021/12/12 06:20:14;;;;;;;;;;;4.40;94.40;;;;;;5088884;28;19931;-69
2021/12/12 06:22:40;;;;;;;;;;;4.40;94.60;;;;;;5089211;28;19912;-69
2021/12/12 06:25:06;;;;;;;;;;;4.40;94.50;;;;;;5091802;28;20065;-70
2021/12/12 06:27:32;;;;;;;;;;;4.40;94.60;;;;;;5092397;28;20316;-69
2021/12/12 06:29:57;;;;;;;;;;;4.40;94.60;;;;;;5091614;28;19927;-70
2021/12/12 06:32:24;;;;;;;;;;;4.40;94.60;;;;;;5095628;28;20573;-70
2021/12/12 06:34:50;;;;;;;;;;;4.40;95.00;;;;;;5093828;28;19916;-69
2021/12/12 06:37:16;;;;;;;;;;;4.40;94.50;;;;;;5095054;28;20000;-70
2021/12/12 06:39:43;;;;;;;;;;;4.40;94.60;;;;;;5093304;28;19926;-69
2021/12/12 06:42:09;;;;;;;;;;;4.40;94.80;;;;;;5092887;28;20506;-69
2021/12/12 06:44:39;;;;;;;;;;;4.40;94.50;;;;;;5095451;28;20324;-70
2021/12/12 06:47:05;;;;;;;;;;;4.40;94.60;;;;;;5089581;28;20023;-69
2021/12/12 06:49:31;;;;;;;;;;;4.50;94.60;;;;;;5093810;28;20326;-69
2021/12/12 06:51:58;;;;;;;;;;;4.40;94.70;;;;;;5092523;28;20045;-70
2021/12/12 06:54:27;;;;;;;;;;;4.50;94.80;;;;;;5093549;28;19916;-69
2021/12/12 06:56:53;;;;;;;;;;;4.50;94.70;;;;;;5089485;28;19965;-70
2021/12/12 06:59:20;;;;;;;;;;;4.50;94.60;;;;;;5087214;28;19912;-70
2021/12/12 07:01:47;;;;;;;;;;;4.50;94.70;;;;;;5090202;28;20027;-69
2021/12/12 07:04:15;;;;;;;;;;;4.50;94.70;;;;;;5091470;28;20023;-69
2021/12/12 07:06:41;;;;;;;;;;;4.50;94.80;;;;;;5091632;28;20365;-70
2021/12/12 07:09:07;;;;;;;;;;;4.50;94.70;;;;;;5091908;28;19923;-69
2021/12/12 07:11:34;;;;;;;;;;;4.50;94.80;;;;;;5092629;28;19931;-69
2021/12/12 07:14:01;;;;;;;;;;;4.50;94.70;;;;;;5089894;28;19945;-70
2021/12/12 07:16:27;;;;;;;;;;;4.50;94.90;;;;;;5091674;28;20361;-70
2021/12/12 07:18:53;;;;;;;;;;;4.50;94.90;;;;;;5087704;28;19916;-70
2021/12/12 07:21:19;;;;;;;;;;;4.50;94.70;;;;;;5091493;28;19908;-70
2021/12/12 07:23:46;;;;;;;;;;;4.50;94.80;;;;;;5087104;28;20277;-70
2021/12/12 07:26:12;;;;;;;;;;;4.50;94.80;;;;;;5090076;28;19995;-69
2021/12/12 07:28:38;;;;;;;;;;;4.60;94.70;;;;;;5084508;28;19915;-69
2021/12/12 07:31:05;;;;;;;;;;;4.60;94.80;;;;;;5102435;27;19912;-70
2021/12/12 07:33:32;;;;;;;;;;;4.60;94.80;;;;;;5104618;28;19924;-70
2021/12/12 07:35:59;;;;;;;;;;;4.60;94.90;;;;;;5089039;28;19908;-69
2021/12/12 07:38:26;;;;;;;;;;;4.60;94.70;;;;;;5091376;28;19969;-70
2021/12/12 07:40:51;;;;;;;;;;;4.60;94.70;;;;;;5088164;28;19938;-70
2021/12/12 07:43:17;;;;;;;;;;;4.60;95.00;;;;;;5092474;28;20281;-70
2021/12/12 07:45:43;;;;;;;;;;;4.60;94.80;;;;;;5088877;28;19958;-70
2021/12/12 07:48:09;;;;;;;;;;;4.60;94.70;;;;;;5089608;28;19912;-70
2021/12/12 07:50:35;;;;;;;;;;;4.70;94.80;;;;;;5088833;28;19919;-69
2021/12/12 07:53:01;;;;;;;;;;;4.70;94.80;;;;;;5089855;28;19919;-70
2021/12/12 07:55:27;;;;;;;;;;;4.70;94.90;;;;;;5084993;28;19916;-70
2021/12/12 07:57:52;;;;;;;;;;;4.70;95.00;;;;;;5083643;28;20556;-70
2021/12/12 08:00:20;;;;;;;;;;;4.70;95.00;;;;;;5089353;28;19928;-70
2021/12/12 08:02:46;;;;;;;;;;;4.70;95.00;;;;;;5086937;28;19916;-70
2021/12/12 08:05:13;;;;;;;;;;;4.70;95.10;;;;;;5089959;28;20421;-70
2021/12/12 08:07:40;;;;;;;;;;;4.70;95.00;;;;;;5093666;28;19965;-70
2021/12/12 08:10:10;;;;;;;;;;;4.70;95.20;;;;;;5092586;28;19920;-70
2021/12/12 08:12:36;;;;;;;;;;;4.80;95.10;;;;;;5094572;28;20425;-70
2021/12/12 08:15:07;;;;;;;;;;;4.80;95.20;;;;;;5094078;28;19916;-70
2021/12/12 08:17:33;;;;;;;;;;;4.80;95.10;;;;;;5101190;28;19998;-70
2021/12/12 08:19:58;;;;;;;;;;;4.80;95.20;;;;;;5090556;28;20018;-70
2021/12/12 08:22:25;;;;;;;;;;;4.80;95.10;;;;;;5084147;28;19912;-70
2021/12/12 08:24:51;;;;;;;;;;;4.80;95.10;;;;;;5086846;28;19921;-70
2021/12/12 08:27:16;;;;;;;;;;;4.80;95.30;;;;;;5087446;28;19923;-70
2021/12/12 08:29:42;;;;;;;;;;;4.80;95.40;;;;;;5088270;28;20379;-70
2021/12/12 08:32:09;;;;;;;;;;;4.80;95.10;;;;;;5096451;28;19923;-70
2021/12/12 08:34:34;;;;;;;;;;;4.80;95.20;;;;;;5091569;28;20018;-70
2021/12/12 08:37:00;;;;;;;;;;;4.90;95.20;;;;;;5103063;28;20007;-70
2021/12/12 08:39:27;;;;;;;;;;;4.80;95.20;;;;;;5089538;28;19928;-70
2021/12/12 08:41:54;;;;;;;;;;;4.90;95.20;;;;;;5085446;28;19912;-70
2021/12/12 08:44:19;;;;;;;;;;;4.90;95.30;;;;;;5089373;28;20305;-70
2021/12/12 08:46:46;;;;;;;;;;;4.90;95.20;;;;;;5081150;28;19938;-70
2021/12/12 08:49:13;;;;;;;;;;;4.90;95.20;;;;;;5088821;28;20373;-70
2021/12/12 08:51:40;;;;;;;;;;;4.90;95.10;;;;;;5089813;28;20399;-70
2021/12/12 08:54:14;;;;;;;;;;;4.90;95.30;;;;;;5119090;27;19931;-70
2021/12/12 08:56:46;;;;;;;;;;;4.90;95.00;;;;;;5092820;28;19912;-70
2021/12/12 08:59:25;;;;;;;;;;;4.90;95.20;;;;;;5085739;28;19946;-70
2021/12/12 09:01:51;;;;;;;;;;;4.90;95.30;;;;;;5102922;28;19915;-70
2021/12/12 09:04:17;;;;;;;;;;;4.90;95.50;;;;;;5088093;28;20002;-70
2021/12/12 09:06:47;;;;;;;;;;;5.00;95.30;;;;;;5105965;27;19994;-70
2021/12/12 09:09:16;;;;;;;;;;;5.00;95.50;;;;;;5089194;28;20346;-70
2021/12/12 09:11:47;;;;;;;;;;;5.00;95.40;;;;;;5102597;28;20002;-70
2021/12/12 09:14:13;;;;;;;;;;;5.00;95.60;;;;;;5092128;28;19916;-70
2021/12/12 09:16:46;;;;;;;;;;;5.00;95.40;;;;;;5087607;28;19912;-70
2021/12/12 09:19:14;;;;;;;;;;;5.00;95.20;;;;;;5088337;28;19920;-70
2021/12/12 09:21:47;;;;;;;;;;;5.00;95.30;;;;;;5098576;28;19977;-70
2021/12/12 09:24:16;;;;;;;;;;;5.00;95.40;;;;;;5086887;28;19912;-70
2021/12/12 09:26:44;;;;;;;;;;;5.10;95.30;;;;;;5090576;28;19913;-70
2021/12/12 09:29:15;;;;;;;;;;;5.10;95.30;;;;;;5084218;28;20325;-70
2021/12/12 09:32:07;;;;;;;;;;;5.10;95.30;;;;;;5084717;28;20395;-70
2021/12/12 09:34:52;;;;;;;;;;;5.10;95.30;;;;;;5089004;28;19954;-70
2021/12/12 09:37:41;;;;;;;;;;;5.10;95.40;;;;;;5081288;28;19939;-70
2021/12/12 09:40:13;;;;;;;;;;;5.10;95.40;;;;;;5075963;28;19920;-70
2021/12/12 09:42:45;;;;;;;;;;;5.20;95.40;;;;;;5082834;28;19912;-70
2021/12/12 09:45:23;;;;;;;;;;;5.20;95.40;;;;;;5086083;28;20421;-70
2021/12/12 09:48:26;;;;;;;;;;;5.20;95.60;;;;;;5086251;28;19927;-70
2021/12/12 09:51:14;;;;;;;;;;;5.20;95.50;;;;;;5086430;28;20364;-70
2021/12/12 09:54:01;;;;;;;;;;;5.30;95.50;;;;;;5086943;28;19931;-70
2021/12/12 09:56:36;;;;;;;;;;;5.20;95.40;;;;;;5085953;28;19935;-70
2021/12/12 09:59:01;;;;;;;;;;;5.30;95.30;;;;;;5087749;28;19920;-70
2021/12/12 10:01:39;;;;;;;;;;;5.30;95.30;;;;;;5088478;28;19919;-70
2021/12/12 10:04:23;;;;;;;;;;;5.30;95.30;;;;;;5087558;28;19961;-70
2021/12/12 10:07:01;;;;;;;;;;;5.30;95.40;;;;;;5090695;28;20022;-70
2021/12/12 10:09:32;;;;;;;;;;;5.30;95.40;;;;;;5090100;28;19947;-70
2021/12/12 10:11:58;;;;;;;;;;;5.30;95.40;;;;;;5090473;28;19918;-70
2021/12/12 10:14:42;;;;;;;;;;;5.30;95.50;;;;;;5090401;28;20444;-70
2021/12/12 10:17:07;;;;;;;;;;;5.30;95.40;;;;;;5090031;28;19947;-70
2021/12/12 10:19:33;;;;;;;;;;;5.40;95.40;;;;;;5089540;28;20568;-70
2021/12/12 10:22:01;;;;;;;;;;;5.30;95.40;;;;;;5092936;28;19916;-70
2021/12/12 10:24:27;;;;;;;;;;;5.40;95.40;;;;;;5094412;28;19912;-70
2021/12/12 10:27:02;;;;;;;;;;;5.40;95.30;;;;;;5092702;28;19923;-70
2021/12/12 10:29:31;;;;;;;;;;;5.40;95.50;;;;;;5092867;28;19917;-70
2021/12/12 10:32:17;;;;;;;;;;;5.40;95.70;;;;;;5090249;28;19923;-70
2021/12/12 10:34:45;;;;;;;;;;;5.40;95.60;;;;;;5091963;28;19919;-70
2021/12/12 10:37:15;;;;;;;;;;;5.50;95.60;;;;;;5091356;28;19912;-70
2021/12/12 10:39:43;;;;;;;;;;;5.50;95.40;;;;;;5093601;28;20574;-70
2021/12/12 10:42:18;;;;;;;;;;;5.50;95.40;;;;;;5089026;28;19920;-70
2021/12/12 10:45:03;;;;;;;;;;;5.50;95.40;;;;;;5092179;28;19920;-70
2021/12/12 10:47:37;;;;;;;;;;;5.50;95.60;;;;;;5089937;28;19919;-70
2021/12/12 10:50:10;;;;;;;;;;;5.60;95.50;;;;;;5092164;28;19908;-70
2021/12/12 10:52:46;;;;;;;;;;;5.60;95.60;;;;;;5089047;28;19968;-70
2021/12/12 10:55:16;;;;;;;;;;;5.60;95.70;;;;;;5091898;28;19916;-70
2021/12/12 10:57:42;;;;;;;;;;;5.60;95.50;;;;;;5089123;28;19912;-70
2021/12/12 11:00:17;;;;;;;;;;;5.60;95.50;;;;;;5091851;28;20376;-70
2021/12/12 11:02:47;;;;;;;;;;;5.60;95.60;;;;;;5090003;28;20554;-70
2021/12/12 11:05:18;;;;;;;;;;;5.70;95.40;;;;;;5093726;28;19916;-70
2021/12/12 11:07:54;;;;;;;;;;;5.70;95.50;;;;;;5089845;28;19930;-70
2021/12/12 11:10:19;;;;;;;;;;;5.70;95.70;;;;;;5093228;28;19958;-70
2021/12/12 11:12:48;;;;;;;;;;;5.70;95.30;;;;;;5084585;28;19943;-70
2021/12/12 11:15:20;;;;;;;;;;;5.80;95.40;;;;;;5091224;28;19955;-70
2021/12/12 11:17:53;;;;;;;;;;;5.80;95.20;;;;;;5090985;28;19970;-71
2021/12/12 11:20:29;;;;;;;;;;;5.80;95.20;;;;;;5089042;28;19996;-70
2021/12/12 11:23:20;;;;;;;;;;;5.80;95.20;;;;;;5088323;28;19969;-70
2021/12/12 11:25:49;;;;;;;;;;;5.80;95.20;;;;;;5072258;28;20002;-70
2021/12/12 11:28:17;;;;;;;;;;;5.80;95.60;;;;;;5086783;28;20399;-70
2021/12/12 11:30:47;;;;;;;;;;;5.80;95.40;;;;;;5093742;28;19915;-70
2021/12/12 11:33:16;;;;;;;;;;;5.90;95.30;;;;;;5089623;28;19931;-70
2021/12/12 11:35:43;;;;;;;;;;;5.90;95.60;;;;;;5091239;28;19919;-70
2021/12/12 11:38:27;;;;;;;;;;;5.90;95.40;;;;;;5089678;28;19920;-70
2021/12/12 11:40:56;;;;;;;;;;;6.00;95.60;;;;;;5090544;28;19923;-71
2021/12/12 11:43:27;;;;;;;;;;;6.00;95.50;;;;;;5092829;28;19913;-70
2021/12/12 11:45:54;;;;;;;;;;;6.00;95.50;;;;;;5085626;28;20015;-70
2021/12/12 11:48:38;;;;;;;;;;;6.00;95.60;;;;;;5091007;28;20436;-70
2021/12/12 11:51:12;;;;;;;;;;;6.00;95.50;;;;;;5083909;28;20003;-70
2021/12/12 11:54:13;;;;;;;;;;;6.10;95.50;;;;;;5104272;27;19916;-70
2021/12/12 11:56:45;;;;;;;;;;;6.10;95.60;;;;;;5009536;28;20001;-71
2021/12/12 11:59:23;;;;;;;;;;;6.10;95.50;;;;;;5080583;28;20044;-70
2021/12/12 12:01:57;;;;;;;;;;;6.10;95.50;;;;;;5087738;28;20302;-71
2021/12/12 12:04:41;;;;;;;;;;;6.20;95.70;;;;;;5085827;28;19951;-70
2021/12/12 12:07:09;;;;;;;;;;;6.20;95.50;;;;;;5084926;28;19920;-70
2021/12/12 12:09:43;;;;;;;;;;;6.20;95.50;;;;;;5090038;28;19908;-71
2021/12/12 12:12:15;;;;;;;;;;;6.20;95.40;;;;;;5088629;28;20364;-70
2021/12/12 12:14:43;;;;;;;;;;;6.20;95.40;;;;;;5081984;28;19912;-70
2021/12/12 12:17:29;;;;;;;;;;;6.20;95.70;;;;;;5096367;27;19912;-70
2021/12/12 12:20:03;;;;;;;;;;;6.20;95.50;;;;;;5089423;28;19916;-70
2021/12/12 12:22:47;;;;;;;;;;;6.30;95.70;;;;;;5090629;28;19946;-70
2021/12/12 12:25:16;;;;;;;;;;;6.30;95.70;;;;;;5092391;28;19912;-70
2021/12/12 12:27:57;;;;;;;;;;;6.30;95.60;;;;;;5103134;27;19965;-70
2021/12/12 12:30:31;;;;;;;;;;;6.30;95.70;;;;;;5089039;28;19987;-70
2021/12/12 12:33:15;;;;;;;;;;;6.30;95.70;;;;;;5088706;28;19920;-70
2021/12/12 12:35:59;;;;;;;;;;;6.30;95.70;;;;;;5088225;28;19958;-70
2021/12/12 12:38:45;;;;;;;;;;;6.30;95.70;;;;;;5091115;28;19927;-70
2021/12/12 12:41:30;;;;;;;;;;;6.30;95.70;;;;;;5100752;28;19912;-70
2021/12/12 12:44:14;;;;;;;;;;;6.30;95.70;;;;;;5090421;28;20018;-70
2021/12/12 12:46:58;;;;;;;;;;;6.30;95.80;;;;;;5098793;27;20311;-70
2021/12/12 12:49:43;;;;;;;;;;;6.30;95.80;;;;;;5082465;28;19962;-70
2021/12/12 12:52:27;;;;;;;;;;;6.30;95.80;;;;;;5086167;28;20337;-70
2021/12/12 12:54:52;;;;;;;;;;;6.40;96.00;;;;;;5090308;28;19919;-70
2021/12/12 12:57:20;;;;;;;;;;;6.40;96.00;;;;;;5089452;28;19916;-70
2021/12/12 12:59:46;;;;;;;;;;;6.40;96.10;;;;;;5090835;28;19943;-70
2021/12/12 13:02:14;;;;;;;;;;;6.40;96.10;;;;;;5090110;28;19954;-70
2021/12/12 13:04:47;;;;;;;;;;;6.40;96.00;;;;;;5089142;28;20268;-70
2021/12/12 13:07:21;;;;;;;;;;;6.40;96.10;;;;;;5089845;28;20901;-70
2021/12/12 13:09:58;;;;;;;;;;;6.40;96.10;;;;;;5088299;28;20284;-70
2021/12/12 13:12:23;;;;;;;;;;;6.50;96.00;;;;;;5089589;28;19908;-70
2021/12/12 13:14:57;;;;;;;;;;;6.40;96.00;;;;;;5077907;28;20403;-70
2021/12/12 13:17:26;;;;;;;;;;;6.40;96.00;;;;;;5087402;28;20344;-70
2021/12/12 13:20:03;;;;;;;;;;;6.40;96.00;;;;;;5091134;28;20304;-70
2021/12/12 13:22:48;;;;;;;;;;;6.40;96.00;;;;;;5087313;28;19938;-70
2021/12/12 13:25:37;;;;;;;;;;;6.40;96.00;;;;;;5073644;28;19916;-70
2021/12/12 13:28:16;;;;;;;;;;;6.50;96.00;;;;;;5079971;28;19920;-71
2021/12/12 13:30:59;;;;;;;;;;;6.40;96.00;;;;;;5078943;28;20365;-70
2021/12/12 13:33:37;;;;;;;;;;;6.50;96.00;;;;;;5088939;28;19920;-70
2021/12/12 13:36:22;;;;;;;;;;;6.50;96.00;;;;;;5085978;28;19912;-70
2021/12/12 13:38:54;;;;;;;;;;;6.50;96.10;;;;;;5077643;28;19912;-70
2021/12/12 13:41:22;;;;;;;;;;;6.50;96.10;;;;;;5078831;28;19916;-70
2021/12/12 13:43:54;;;;;;;;;;;6.50;96.10;;;;;;5091246;28;19923;-70
2021/12/12 13:46:20;;;;;;;;;;;6.50;96.00;;;;;;5092944;28;19912;-70
2021/12/12 13:48:50;;;;;;;;;;;6.50;96.00;;;;;;5088899;28;20238;-70
2021/12/12 13:51:30;;;;;;;;;;;6.50;96.00;;;;;;5100296;28;19969;-70
2021/12/12 13:54:11;;;;;;;;;;;6.50;96.00;;;;;;5084388;28;19951;-70
2021/12/12 13:56:48;;;;;;;;;;;6.50;96.10;;;;;;5089352;28;19912;-70
2021/12/12 13:59:22;;;;;;;;;;;6.60;96.20;;;;;;5092602;28;19920;-71
2021/12/12 14:01:50;;;;;;;;;;;6.60;96.10;;;;;;5097438;28;19944;-70
2021/12/12 14:04:21;;;;;;;;;;;6.60;96.10;;;;;;5101209;28;19939;-70
2021/12/12 14:06:49;;;;;;;;;;;6.60;96.10;;;;;;5100036;28;20375;-70
2021/12/12 14:09:18;;;;;;;;;;;6.60;96.00;;;;;;5101258;28;19908;-70
2021/12/12 14:11:48;;;;;;;;;;;6.60;96.10;;;;;;5097950;28;20379;-70
2021/12/12 14:14:19;;;;;;;;;;;6.60;96.20;;;;;;5096541;28;20010;-70
2021/12/12 14:16:50;;;;;;;;;;;6.60;96.10;;;;;;5090891;28;19912;-70
2021/12/12 14:19:17;;;;;;;;;;;6.60;96.10;;;;;;5091061;28;19912;-70
2021/12/12 14:21:44;;;;;;;;;;;6.60;96.10;;;;;;5092655;28;19912;-71
2021/12/12 14:24:11;;;;;;;;;;;6.60;96.10;;;;;;5094233;28;19912;-70
2021/12/12 14:26:43;;;;;;;;;;;6.60;96.00;;;;;;5091133;28;19965;-71
2021/12/12 14:29:15;;;;;;;;;;;6.70;96.20;;;;;;5090886;28;20007;-70
2021/12/12 14:31:46;;;;;;;;;;;6.70;96.10;;;;;;5085264;28;20050;-70
2021/12/12 14:34:23;;;;;;;;;;;6.70;96.10;;;;;;5103037;28;19916;-70
2021/12/12 14:36:50;;;;;;;;;;;6.70;96.10;;;;;;5095766;27;20371;-70
2021/12/12 14:39:16;;;;;;;;;;;6.70;96.00;;;;;;5082229;28;19962;-70
2021/12/12 14:41:45;;;;;;;;;;;6.70;96.00;;;;;;5084863;28;19919;-70
2021/12/12 14:44:24;;;;;;;;;;;6.70;96.30;;;;;;5104874;28;19920;-70
2021/12/12 14:46:51;;;;;;;;;;;6.70;96.20;;;;;;5091944;28;19922;-70
2021/12/12 14:49:18;;;;;;;;;;;6.70;96.10;;;;;;5080078;28;19965;-70
2021/12/12 14:51:55;;;;;;;;;;;6.70;96.10;;;;;;5087436;28;20392;-70
2021/12/12 14:54:21;;;;;;;;;;;6.70;96.10;;;;;;5090436;28;19958;-70
2021/12/12 14:56:54;;;;;;;;;;;6.70;96.10;;;;;;5091685;28;20290;-70
2021/12/12 14:59:31;;;;;;;;;;;6.70;96.10;;;;;;5092373;28;20027;-70
2021/12/12 15:02:16;;;;;;;;;;;6.70;96.10;;;;;;5089768;28;19920;-70
2021/12/12 15:04:53;;;;;;;;;;;6.70;96.00;;;;;;5077974;28;20377;-70